Spencerport, NY (14559)

6:18 PM EST on February 08, 2016 (GMT -0500)
Spencerport NY | | Change Station
CLOSE
Current Station
Personal Weather Station
Location: Spencerport, NY
Elevation: 574 ft
Nearby Weather Stations

Elev 574 ft 43.18 °N, 77.80 °W | Updated 11 minutes ago

Overcast
Overcast
36.9 °F
Feels Like 37 °F
N
0.0
Wind Variable Wind from NE
Gusts 5.0 mph

Today
High -- | Low -- °F
--% Chance of Precip.
Yesterday
High -- | Low -- °F
Precip. -- in
Pressure 29.66 in
Visibility 10.0 miles
Clouds Mostly Cloudy 10000 ft
Overcast 13000 ft
Windchill 37 °F
Dew Point 30 °F
Humidity 77%
Rainfall 0.00 in
Snow Depth Not available.
7:19 AM 5:32 PM
New Moon, 0% visible
METAR KROC 082254Z 10007KT 10SM BKN100 OVC130 04/M03 A2963 RMK AO2 SLP042 BINOVC T00391033
Pressure 29.66 in
Visibility 10.0 miles
Clouds Mostly Cloudy 10000 ft
Overcast 13000 ft
Windchill 37 °F
Dew Point 30 °F
Humidity 77%
Rainfall 0.00 in
Snow Depth Not available.
7:19 AM 5:32 PM
New Moon, 0% visible
METAR KROC 082254Z 10007KT 10SM BKN100 OVC130 04/M03 A2963 RMK AO2 SLP042 BINOVC T00391033

10-Day Weather Forecast

Almanac

Astronomy

Feb. 08, 2016 Rise Set
Actual Time
Civil Twilight
Nautical Twilight
Astronomical Twilight
Moon
Length of Visible Light
Length of Day
Tomorrow will be .
, % of the Moon is Illuminated

Today's Extremes

State Highs State Lows

Community

WunderPhotos

Upload Photos

1,891,525 photos uploaded!

WunderBlog® & News

Nearby

Air Quality

  Air Quality AQ Index Pollutant
Not available.

Snow Depth

Station Depth Elevation

Earthquake Activity

City Distance Mag. Time & Date
Minimum magnitude displayed is 2.5.

Coastal Water Temperatures

Place Temperature

Stations

Nearby Weather Stations

Station Location Temp. Windchill Dew Point Humidity Wind Precip. Elev Updated Type
                   

Watches & Warnings

There are currently no watches in effect.